sensor_id;sensor_type;location;lat;lon;timestamp;temperature;humidity
6054;DHT22;3055;50.886;14.814;2023-05-29T00:02:08;9.00;1.00
6054;DHT22;3055;50.886;14.814;2023-05-29T00:04:35;9.00;1.00
6054;DHT22;3055;50.886;14.814;2023-05-29T00:07:05;9.00;1.00
6054;DHT22;3055;50.886;14.814;2023-05-29T00:09:32;8.90;1.00
6054;DHT22;3055;50.886;14.814;2023-05-29T00:11:59;8.90;1.00
6054;DHT22;3055;50.886;14.814;2023-05-29T00:14:26;8.90;1.00
6054;DHT22;3055;50.886;14.814;2023-05-29T00:16:53;8.80;1.00
6054;DHT22;3055;50.886;14.814;2023-05-29T00:19:22;8.80;1.00
6054;DHT22;3055;50.886;14.814;2023-05-29T00:21:50;8.80;1.00
6054;DHT22;3055;50.886;14.814;2023-05-29T00:24:19;8.70;1.00
6054;DHT22;3055;50.886;14.814;2023-05-29T00:26:46;8.70;1.00
6054;DHT22;3055;50.886;14.814;2023-05-29T00:29:13;8.70;1.00
6054;DHT22;3055;50.886;14.814;2023-05-29T00:31:40;8.70;1.00
6054;DHT22;3055;50.886;14.814;2023-05-29T00:34:07;8.60;1.00
6054;DHT22;3055;50.886;14.814;2023-05-29T00:36:34;8.50;1.00
6054;DHT22;3055;50.886;14.814;2023-05-29T00:39:02;8.40;1.00
6054;DHT22;3055;50.886;14.814;2023-05-29T00:41:30;8.40;1.00
6054;DHT22;3055;50.886;14.814;2023-05-29T00:43:58;8.30;1.00
6054;DHT22;3055;50.886;14.814;2023-05-29T00:46:25;8.20;1.00
6054;DHT22;3055;50.886;14.814;2023-05-29T00:48:52;8.20;1.00
6054;DHT22;3055;50.886;14.814;2023-05-29T00:51:20;8.30;1.00
6054;DHT22;3055;50.886;14.814;2023-05-29T00:53:48;8.30;8.80
6054;DHT22;3055;50.886;14.814;2023-05-29T00:56:17;8.10;4.10
6054;DHT22;3055;50.886;14.814;2023-05-29T00:58:48;8.20;15.90
6054;DHT22;3055;50.886;14.814;2023-05-29T01:01:16;8.30;19.40
6054;DHT22;3055;50.886;14.814;2023-05-29T01:03:44;8.30;1.00
6054;DHT22;3055;50.886;14.814;2023-05-29T01:06:14;8.30;7.90
6054;DHT22;3055;50.886;14.814;2023-05-29T01:08:41;8.20;1.70
6054;DHT22;3055;50.886;14.814;2023-05-29T01:11:12;8.20;27.70
6054;DHT22;3055;50.886;14.814;2023-05-29T01:13:48;8.20;36.70
6054;DHT22;3055;50.886;14.814;2023-05-29T01:16:21;8.20;29.10
6054;DHT22;3055;50.886;14.814;2023-05-29T01:18:56;8.10;16.00
6054;DHT22;3055;50.886;14.814;2023-05-29T01:21:32;8.20;7.90
6054;DHT22;3055;50.886;14.814;2023-05-29T01:24:14;8.20;13.00
6054;DHT22;3055;50.886;14.814;2023-05-29T01:26:58;8.30;1.00
6054;DHT22;3055;50.886;14.814;2023-05-29T01:29:29;8.30;1.00
6054;DHT22;3055;50.886;14.814;2023-05-29T01:31:57;8.30;1.00
6054;DHT22;3055;50.886;14.814;2023-05-29T01:34:25;8.20;1.00
6054;DHT22;3055;50.886;14.814;2023-05-29T01:36:52;8.10;1.00
6054;DHT22;3055;50.886;14.814;2023-05-29T01:39:19;7.90;5.20
6054;DHT22;3055;50.886;14.814;2023-05-29T01:41:47;7.70;30.20
6054;DHT22;3055;50.886;14.814;2023-05-29T01:44:17;7.60;64.60
6054;DHT22;3055;50.886;14.814;2023-05-29T01:46:44;7.40;93.20
6054;DHT22;3055;50.886;14.814;2023-05-29T01:49:12;7.40;99.90
6054;DHT22;3055;50.886;14.814;2023-05-29T01:51:40;7.30;99.90
6054;DHT22;3055;50.886;14.814;2023-05-29T01:54:08;7.40;99.90
6054;DHT22;3055;50.886;14.814;2023-05-29T01:56:36;7.30;99.90
6054;DHT22;3055;50.886;14.814;2023-05-29T01:59:03;7.30;99.90
6054;DHT22;3055;50.886;14.814;2023-05-29T02:01:32;7.30;99.90
6054;DHT22;3055;50.886;14.814;2023-05-29T02:04:00;7.30;99.90
6054;DHT22;3055;50.886;14.814;2023-05-29T02:06:27;7.30;99.90
6054;DHT22;3055;50.886;14.814;2023-05-29T02:08:54;7.30;99.90
6054;DHT22;3055;50.886;14.814;2023-05-29T02:11:21;7.20;99.90
6054;DHT22;3055;50.886;14.814;2023-05-29T02:13:48;7.20;99.90
6054;DHT22;3055;50.886;14.814;2023-05-29T02:16:15;7.10;99.90
6054;DHT22;3055;50.886;14.814;2023-05-29T02:18:50;7.20;99.90
6054;DHT22;3055;50.886;14.814;2023-05-29T02:21:19;7.10;99.90
6054;DHT22;3055;50.886;14.814;2023-05-29T02:23:46;7.10;99.90
6054;DHT22;3055;50.886;14.814;2023-05-29T02:26:13;7.20;99.90
6054;DHT22;3055;50.886;14.814;2023-05-29T02:28:42;7.20;99.90
6054;DHT22;3055;50.886;14.814;2023-05-29T02:31:09;7.10;99.90
6054;DHT22;3055;50.886;14.814;2023-05-29T02:33:37;7.00;99.90
6054;DHT22;3055;50.886;14.814;2023-05-29T02:36:05;7.00;99.90
6054;DHT22;3055;50.886;14.814;2023-05-29T02:38:35;7.00;99.90
6054;DHT22;3055;50.886;14.814;2023-05-29T02:41:02;7.00;99.90
6054;DHT22;3055;50.886;14.814;2023-05-29T02:43:29;7.10;99.90
6054;DHT22;3055;50.886;14.814;2023-05-29T02:45:56;7.00;99.90
6054;DHT22;3055;50.886;14.814;2023-05-29T02:48:23;7.00;99.90
6054;DHT22;3055;50.886;14.814;2023-05-29T02:50:51;7.10;99.90
6054;DHT22;3055;50.886;14.814;2023-05-29T02:53:20;7.00;99.90
6054;DHT22;3055;50.886;14.814;2023-05-29T02:58:14;6.90;99.90
6054;DHT22;3055;50.886;14.814;2023-05-29T03:00:42;6.90;99.90
6054;DHT22;3055;50.886;14.814;2023-05-29T03:03:09;6.80;99.90
6054;DHT22;3055;50.886;14.814;2023-05-29T03:05:36;6.80;99.90
6054;DHT22;3055;50.886;14.814;2023-05-29T03:08:03;6.80;99.90
6054;DHT22;3055;50.886;14.814;2023-05-29T03:10:31;6.90;99.90
6054;DHT22;3055;50.886;14.814;2023-05-29T03:12:58;6.90;99.90
6054;DHT22;3055;50.886;14.814;2023-05-29T03:15:25;6.90;99.90
6054;DHT22;3055;50.886;14.814;2023-05-29T03:17:52;6.90;99.90
6054;DHT22;3055;50.886;14.814;2023-05-29T03:20:19;6.90;99.90
6054;DHT22;3055;50.886;14.814;2023-05-29T03:22:47;7.10;99.90
6054;DHT22;3055;50.886;14.814;2023-05-29T03:25:14;7.20;99.90
6054;DHT22;3055;50.886;14.814;2023-05-29T03:27:43;7.30;89.90
6054;DHT22;3055;50.886;14.814;2023-05-29T03:30:11;7.40;50.20
6054;DHT22;3055;50.886;14.814;2023-05-29T03:32:39;7.40;44.40
6054;DHT22;3055;50.886;14.814;2023-05-29T03:35:06;7.40;23.70
6054;DHT22;3055;50.886;14.814;2023-05-29T03:37:34;7.30;27.10
6054;DHT22;3055;50.886;14.814;2023-05-29T03:40:01;7.20;47.30
6054;DHT22;3055;50.886;14.814;2023-05-29T03:42:28;7.20;76.00
6054;DHT22;3055;50.886;14.814;2023-05-29T03:44:58;7.20;95.90
6054;DHT22;3055;50.886;14.814;2023-05-29T03:47:25;7.30;64.60
6054;DHT22;3055;50.886;14.814;2023-05-29T03:49:52;7.40;53.60
6054;DHT22;3055;50.886;14.814;2023-05-29T03:52:19;7.50;26.90
6054;DHT22;3055;50.886;14.814;2023-05-29T03:54:46;7.50;35.90
6054;DHT22;3055;50.886;14.814;2023-05-29T03:57:13;7.70;17.30
6054;DHT22;3055;50.886;14.814;2023-05-29T03:59:41;7.70;1.00
6054;DHT22;3055;50.886;14.814;2023-05-29T04:02:09;7.80;1.00
6054;DHT22;3055;50.886;14.814;2023-05-29T04:04:37;7.90;1.00
6054;DHT22;3055;50.886;14.814;2023-05-29T04:07:05;8.20;6.90
6054;DHT22;3055;50.886;14.814;2023-05-29T04:09:33;8.70;1.00
6054;DHT22;3055;50.886;14.814;2023-05-29T04:12:01;9.40;99.90
6054;DHT22;3055;50.886;14.814;2023-05-29T04:14:30;9.80;1.00
6054;DHT22;3055;50.886;14.814;2023-05-29T04:16:57;10.30;99.90
6054;DHT22;3055;50.886;14.814;2023-05-29T04:19:25;10.70;74.00
6054;DHT22;3055;50.886;14.814;2023-05-29T04:21:53;11.10;1.00
6054;DHT22;3055;50.886;14.814;2023-05-29T04:24:20;11.50;99.90
6054;DHT22;3055;50.886;14.814;2023-05-29T04:26:47;11.90;11.40
6054;DHT22;3055;50.886;14.814;2023-05-29T04:29:14;12.20;1.00
6054;DHT22;3055;50.886;14.814;2023-05-29T04:31:41;12.50;99.90
6054;DHT22;3055;50.886;14.814;2023-05-29T04:34:08;12.70;99.90
6054;DHT22;3055;50.886;14.814;2023-05-29T04:36:37;12.70;99.90
6054;DHT22;3055;50.886;14.814;2023-05-29T04:39:04;12.90;99.90
6054;DHT22;3055;50.886;14.814;2023-05-29T04:41:32;13.10;99.90
6054;DHT22;3055;50.886;14.814;2023-05-29T04:43:59;13.10;99.90
6054;DHT22;3055;50.886;14.814;2023-05-29T04:46:27;13.30;99.90
6054;DHT22;3055;50.886;14.814;2023-05-29T04:48:54;13.40;99.90
6054;DHT22;3055;50.886;14.814;2023-05-29T04:51:22;13.50;99.90
6054;DHT22;3055;50.886;14.814;2023-05-29T04:53:51;13.60;99.90
6054;DHT22;3055;50.886;14.814;2023-05-29T04:56:18;13.80;99.90
6054;DHT22;3055;50.886;14.814;2023-05-29T04:58:46;14.00;99.90
6054;DHT22;3055;50.886;14.814;2023-05-29T05:01:13;14.20;99.90
6054;DHT22;3055;50.886;14.814;2023-05-29T05:03:40;14.30;81.50
6054;DHT22;3055;50.886;14.814;2023-05-29T05:06:07;14.40;57.10
6054;DHT22;3055;50.886;14.814;2023-05-29T05:08:34;14.30;50.90
6054;DHT22;3055;50.886;14.814;2023-05-29T05:11:03;14.30;41.20
6054;DHT22;3055;50.886;14.814;2023-05-29T05:13:31;14.20;35.70
6054;DHT22;3055;50.886;14.814;2023-05-29T05:15:59;14.10;35.90
6054;DHT22;3055;50.886;14.814;2023-05-29T05:18:26;14.20;32.70
6054;DHT22;3055;50.886;14.814;2023-05-29T05:20:53;14.30;27.10
6054;DHT22;3055;50.886;14.814;2023-05-29T05:23:20;14.40;24.20
6054;DHT22;3055;50.886;14.814;2023-05-29T05:25:47;14.40;18.00
6054;DHT22;3055;50.886;14.814;2023-05-29T05:28:15;14.30;17.20
6054;DHT22;3055;50.886;14.814;2023-05-29T05:30:42;14.20;14.50
6054;DHT22;3055;50.886;14.814;2023-05-29T05:33:09;14.20;18.50
6054;DHT22;3055;50.886;14.814;2023-05-29T05:35:37;14.10;18.30
6054;DHT22;3055;50.886;14.814;2023-05-29T05:38:04;14.10;12.70
6054;DHT22;3055;50.886;14.814;2023-05-29T05:40:31;14.10;19.40
6054;DHT22;3055;50.886;14.814;2023-05-29T05:42:59;13.90;23.90
6054;DHT22;3055;50.886;14.814;2023-05-29T05:45:27;13.90;39.80
6054;DHT22;3055;50.886;14.814;2023-05-29T05:47:56;14.00;35.70
6054;DHT22;3055;50.886;14.814;2023-05-29T05:50:23;13.90;48.80
6054;DHT22;3055;50.886;14.814;2023-05-29T05:52:50;13.90;69.00
6054;DHT22;3055;50.886;14.814;2023-05-29T05:55:17;14.00;77.30
6054;DHT22;3055;50.886;14.814;2023-05-29T05:57:46;14.10;92.30
6054;DHT22;3055;50.886;14.814;2023-05-29T06:00:14;14.20;56.20
6054;DHT22;3055;50.886;14.814;2023-05-29T06:02:43;14.30;62.60
6054;DHT22;3055;50.886;14.814;2023-05-29T06:05:10;14.50;40.70
6054;DHT22;3055;50.886;14.814;2023-05-29T06:07:38;14.50;45.80
6054;DHT22;3055;50.886;14.814;2023-05-29T06:10:06;14.60;52.10
6054;DHT22;3055;50.886;14.814;2023-05-29T06:12:33;14.70;37.30
6054;DHT22;3055;50.886;14.814;2023-05-29T06:15:01;14.70;14.40
6054;DHT22;3055;50.886;14.814;2023-05-29T06:17:29;14.80;16.30
6054;DHT22;3055;50.886;14.814;2023-05-29T06:19:58;15.00;9.20
6054;DHT22;3055;50.886;14.814;2023-05-29T06:22:25;15.20;8.40
6054;DHT22;3055;50.886;14.814;2023-05-29T06:24:52;15.40;1.00
6054;DHT22;3055;50.886;14.814;2023-05-29T06:27:19;15.50;1.00
6054;DHT22;3055;50.886;14.814;2023-05-29T06:29:49;15.50;1.00
6054;DHT22;3055;50.886;14.814;2023-05-29T06:32:15;15.70;1.00
6054;DHT22;3055;50.886;14.814;2023-05-29T06:34:42;15.90;1.00
6054;DHT22;3055;50.886;14.814;2023-05-29T06:37:11;16.00;1.00
6054;DHT22;3055;50.886;14.814;2023-05-29T06:39:38;16.30;1.00
6054;DHT22;3055;50.886;14.814;2023-05-29T06:42:07;16.50;1.00
6054;DHT22;3055;50.886;14.814;2023-05-29T06:44:35;16.70;1.00
6054;DHT22;3055;50.886;14.814;2023-05-29T06:47:02;16.80;1.00
6054;DHT22;3055;50.886;14.814;2023-05-29T06:49:29;16.90;1.00
6054;DHT22;3055;50.886;14.814;2023-05-29T06:51:56;17.00;1.00
6054;DHT22;3055;50.886;14.814;2023-05-29T06:54:25;17.20;1.00
6054;DHT22;3055;50.886;14.814;2023-05-29T06:56:52;17.30;1.00
6054;DHT22;3055;50.886;14.814;2023-05-29T06:59:20;17.50;1.00
6054;DHT22;3055;50.886;14.814;2023-05-29T07:01:47;17.70;1.00
6054;DHT22;3055;50.886;14.814;2023-05-29T07:04:14;17.80;1.00
6054;DHT22;3055;50.886;14.814;2023-05-29T07:06:41;18.00;1.00
6054;DHT22;3055;50.886;14.814;2023-05-29T07:09:08;18.20;1.00
6054;DHT22;3055;50.886;14.814;2023-05-29T07:11:38;18.30;1.00
6054;DHT22;3055;50.886;14.814;2023-05-29T07:14:05;18.40;1.00
6054;DHT22;3055;50.886;14.814;2023-05-29T07:16:32;18.40;1.00
6054;DHT22;3055;50.886;14.814;2023-05-29T07:18:59;18.30;1.00
6054;DHT22;3055;50.886;14.814;2023-05-29T07:21:26;18.50;1.00
6054;DHT22;3055;50.886;14.814;2023-05-29T07:23:53;18.70;1.00
6054;DHT22;3055;50.886;14.814;2023-05-29T07:26:20;18.90;1.00
6054;DHT22;3055;50.886;14.814;2023-05-29T07:28:49;19.00;1.00
6054;DHT22;3055;50.886;14.814;2023-05-29T07:31:16;19.00;1.00
6054;DHT22;3055;50.886;14.814;2023-05-29T07:33:44;19.30;1.00
6054;DHT22;3055;50.886;14.814;2023-05-29T07:36:11;19.40;1.00
6054;DHT22;3055;50.886;14.814;2023-05-29T07:38:38;19.60;1.00
6054;DHT22;3055;50.886;14.814;2023-05-29T07:41:05;19.70;1.00
6054;DHT22;3055;50.886;14.814;2023-05-29T07:43:32;19.70;1.00
6054;DHT22;3055;50.886;14.814;2023-05-29T07:46:00;19.80;1.00
6054;DHT22;3055;50.886;14.814;2023-05-29T07:48:28;19.90;1.00
6054;DHT22;3055;50.886;14.814;2023-05-29T07:50:55;19.90;1.00
6054;DHT22;3055;50.886;14.814;2023-05-29T07:53:22;20.00;1.00
6054;DHT22;3055;50.886;14.814;2023-05-29T07:55:49;20.20;1.00
6054;DHT22;3055;50.886;14.814;2023-05-29T07:58:16;20.30;1.00
6054;DHT22;3055;50.886;14.814;2023-05-29T08:00:44;20.60;1.00
6054;DHT22;3055;50.886;14.814;2023-05-29T08:03:12;20.50;1.00
6054;DHT22;3055;50.886;14.814;2023-05-29T08:05:39;20.50;1.00
6054;DHT22;3055;50.886;14.814;2023-05-29T08:08:07;20.40;1.00
6054;DHT22;3055;50.886;14.814;2023-05-29T08:10:34;20.50;1.00
6054;DHT22;3055;50.886;14.814;2023-05-29T08:13:01;20.50;1.00
6054;DHT22;3055;50.886;14.814;2023-05-29T08:15:28;20.60;1.00
6054;DHT22;3055;50.886;14.814;2023-05-29T08:17:55;20.60;1.00
6054;DHT22;3055;50.886;14.814;2023-05-29T08:20:23;20.80;1.00
6054;DHT22;3055;50.886;14.814;2023-05-29T08:22:50;20.80;1.00
6054;DHT22;3055;50.886;14.814;2023-05-29T08:25:17;20.90;1.00
6054;DHT22;3055;50.886;14.814;2023-05-29T08:27:46;21.10;1.00
6054;DHT22;3055;50.886;14.814;2023-05-29T08:30:13;21.20;1.00
6054;DHT22;3055;50.886;14.814;2023-05-29T08:32:40;21.30;1.00
6054;DHT22;3055;50.886;14.814;2023-05-29T08:35:08;21.30;1.00
6054;DHT22;3055;50.886;14.814;2023-05-29T08:37:36;21.50;1.00
6054;DHT22;3055;50.886;14.814;2023-05-29T08:40:04;21.60;1.00
6054;DHT22;3055;50.886;14.814;2023-05-29T08:42:39;21.60;1.00
6054;DHT22;3055;50.886;14.814;2023-05-29T08:45:09;21.70;1.00
6054;DHT22;3055;50.886;14.814;2023-05-29T08:47:40;21.60;1.00
6054;DHT22;3055;50.886;14.814;2023-05-29T08:50:08;21.70;1.00
6054;DHT22;3055;50.886;14.814;2023-05-29T08:52:37;21.70;1.00
6054;DHT22;3055;50.886;14.814;2023-05-29T08:55:07;21.80;1.00
6054;DHT22;3055;50.886;14.814;2023-05-29T08:57:34;21.90;1.00
6054;DHT22;3055;50.886;14.814;2023-05-29T09:00:04;21.90;1.00
6054;DHT22;3055;50.886;14.814;2023-05-29T09:02:38;22.00;1.00
6054;DHT22;3055;50.886;14.814;2023-05-29T09:05:05;22.10;1.00
6054;DHT22;3055;50.886;14.814;2023-05-29T09:07:33;22.10;1.00
6054;DHT22;3055;50.886;14.814;2023-05-29T09:10:06;22.10;1.00
6054;DHT22;3055;50.886;14.814;2023-05-29T09:12:33;22.20;1.00
6054;DHT22;3055;50.886;14.814;2023-05-29T09:15:01;22.30;1.00
6054;DHT22;3055;50.886;14.814;2023-05-29T09:17:31;22.40;1.00
6054;DHT22;3055;50.886;14.814;2023-05-29T09:19:58;22.50;1.00
6054;DHT22;3055;50.886;14.814;2023-05-29T09:22:26;22.30;1.00
6054;DHT22;3055;50.886;14.814;2023-05-29T09:24:54;22.50;1.00
6054;DHT22;3055;50.886;14.814;2023-05-29T09:27:22;22.50;1.00
6054;DHT22;3055;50.886;14.814;2023-05-29T09:29:50;22.50;1.00
6054;DHT22;3055;50.886;14.814;2023-05-29T09:32:17;22.70;1.00
6054;DHT22;3055;50.886;14.814;2023-05-29T09:34:45;22.70;1.00
6054;DHT22;3055;50.886;14.814;2023-05-29T09:37:12;22.70;1.00
6054;DHT22;3055;50.886;14.814;2023-05-29T09:39:46;22.70;1.00
6054;DHT22;3055;50.886;14.814;2023-05-29T09:42:14;22.90;1.00
6054;DHT22;3055;50.886;14.814;2023-05-29T09:44:45;22.80;1.00
6054;DHT22;3055;50.886;14.814;2023-05-29T09:47:14;22.70;1.00
6054;DHT22;3055;50.886;14.814;2023-05-29T09:49:43;22.80;1.00
6054;DHT22;3055;50.886;14.814;2023-05-29T09:52:11;22.70;1.00
6054;DHT22;3055;50.886;14.814;2023-05-29T09:54:42;22.70;1.00
6054;DHT22;3055;50.886;14.814;2023-05-29T09:57:12;22.70;1.00
6054;DHT22;3055;50.886;14.814;2023-05-29T09:59:42;22.70;1.00
6054;DHT22;3055;50.886;14.814;2023-05-29T10:02:11;22.80;1.00
6054;DHT22;3055;50.886;14.814;2023-05-29T10:04:39;22.80;1.00
6054;DHT22;3055;50.886;14.814;2023-05-29T10:07:10;22.80;1.00
6054;DHT22;3055;50.886;14.814;2023-05-29T10:09:42;22.80;1.00
6054;DHT22;3055;50.886;14.814;2023-05-29T10:12:11;22.80;1.00
6054;DHT22;3055;50.886;14.814;2023-05-29T10:14:44;22.70;1.00
6054;DHT22;3055;50.886;14.814;2023-05-29T10:17:14;22.90;1.00
6054;DHT22;3055;50.886;14.814;2023-05-29T10:19:42;23.00;1.00
6054;DHT22;3055;50.886;14.814;2023-05-29T10:22:11;23.10;1.00
6054;DHT22;3055;50.886;14.814;2023-05-29T10:24:39;23.40;1.00
6054;DHT22;3055;50.886;14.814;2023-05-29T10:27:07;23.50;1.00
6054;DHT22;3055;50.886;14.814;2023-05-29T10:29:37;23.50;1.00
6054;DHT22;3055;50.886;14.814;2023-05-29T10:32:20;23.80;1.00
6054;DHT22;3055;50.886;14.814;2023-05-29T10:34:55;23.90;1.00
6054;DHT22;3055;50.886;14.814;2023-05-29T10:37:32;24.10;1.00
6054;DHT22;3055;50.886;14.814;2023-05-29T10:40:04;24.10;1.00
6054;DHT22;3055;50.886;14.814;2023-05-29T10:42:43;24.00;1.00
6054;DHT22;3055;50.886;14.814;2023-05-29T10:45:11;24.10;1.00
6054;DHT22;3055;50.886;14.814;2023-05-29T10:47:40;24.30;1.00
6054;DHT22;3055;50.886;14.814;2023-05-29T10:50:07;24.50;1.00
6054;DHT22;3055;50.886;14.814;2023-05-29T10:52:34;24.40;1.00
6054;DHT22;3055;50.886;14.814;2023-05-29T10:55:01;24.30;1.00
6054;DHT22;3055;50.886;14.814;2023-05-29T10:57:30;24.30;1.00
6054;DHT22;3055;50.886;14.814;2023-05-29T11:00:06;24.10;1.00
6054;DHT22;3055;50.886;14.814;2023-05-29T11:02:40;24.00;1.00
6054;DHT22;3055;50.886;14.814;2023-05-29T11:05:19;24.00;1.00
6054;DHT22;3055;50.886;14.814;2023-05-29T11:07:55;24.20;1.00
6054;DHT22;3055;50.886;14.814;2023-05-29T11:10:41;24.20;1.00
6054;DHT22;3055;50.886;14.814;2023-05-29T11:13:09;24.20;1.00
6054;DHT22;3055;50.886;14.814;2023-05-29T11:15:36;24.20;1.00
6054;DHT22;3055;50.886;14.814;2023-05-29T11:18:11;24.10;1.00
6054;DHT22;3055;50.886;14.814;2023-05-29T11:20:43;24.30;1.00
6054;DHT22;3055;50.886;14.814;2023-05-29T11:23:16;24.40;1.00
6054;DHT22;3055;50.886;14.814;2023-05-29T11:25:44;24.60;1.00
6054;DHT22;3055;50.886;14.814;2023-05-29T11:28:13;24.80;1.00
6054;DHT22;3055;50.886;14.814;2023-05-29T11:30:45;24.90;1.00
6054;DHT22;3055;50.886;14.814;2023-05-29T11:33:22;24.90;1.00
6054;DHT22;3055;50.886;14.814;2023-05-29T11:35:55;24.70;1.00
6054;DHT22;3055;50.886;14.814;2023-05-29T11:38:23;24.60;1.00
6054;DHT22;3055;50.886;14.814;2023-05-29T11:40:50;24.70;1.00
6054;DHT22;3055;50.886;14.814;2023-05-29T11:43:17;24.60;1.00
6054;DHT22;3055;50.886;14.814;2023-05-29T11:45:44;24.80;1.00
6054;DHT22;3055;50.886;14.814;2023-05-29T11:48:12;25.20;1.00
6054;DHT22;3055;50.886;14.814;2023-05-29T11:50:40;25.30;1.00
6054;DHT22;3055;50.886;14.814;2023-05-29T11:53:07;25.30;1.00
6054;DHT22;3055;50.886;14.814;2023-05-29T11:55:34;25.50;1.00
6054;DHT22;3055;50.886;14.814;2023-05-29T11:58:02;25.60;1.00
6054;DHT22;3055;50.886;14.814;2023-05-29T12:00:34;25.30;1.00
6054;DHT22;3055;50.886;14.814;2023-05-29T12:03:03;25.40;1.00
6054;DHT22;3055;50.886;14.814;2023-05-29T12:05:30;25.30;1.00
6054;DHT22;3055;50.886;14.814;2023-05-29T12:07:59;25.40;1.00
6054;DHT22;3055;50.886;14.814;2023-05-29T12:10:30;25.80;1.00
6054;DHT22;3055;50.886;14.814;2023-05-29T12:12:59;26.20;1.00
6054;DHT22;3055;50.886;14.814;2023-05-29T12:15:27;26.20;1.00
6054;DHT22;3055;50.886;14.814;2023-05-29T12:17:54;26.20;1.00
6054;DHT22;3055;50.886;14.814;2023-05-29T12:20:22;26.50;1.00
6054;DHT22;3055;50.886;14.814;2023-05-29T12:22:52;26.60;1.00
6054;DHT22;3055;50.886;14.814;2023-05-29T12:25:21;26.40;1.00
6054;DHT22;3055;50.886;14.814;2023-05-29T12:27:48;26.20;1.00
6054;DHT22;3055;50.886;14.814;2023-05-29T12:30:21;26.10;1.00
6054;DHT22;3055;50.886;14.814;2023-05-29T12:32:49;25.90;1.00
6054;DHT22;3055;50.886;14.814;2023-05-29T12:35:19;25.70;1.00
6054;DHT22;3055;50.886;14.814;2023-05-29T12:37:47;25.50;1.00
6054;DHT22;3055;50.886;14.814;2023-05-29T12:40:18;25.50;1.00
6054;DHT22;3055;50.886;14.814;2023-05-29T12:42:48;25.60;1.00
6054;DHT22;3055;50.886;14.814;2023-05-29T12:45:17;25.60;1.00
6054;DHT22;3055;50.886;14.814;2023-05-29T12:47:46;25.70;1.00
6054;DHT22;3055;50.886;14.814;2023-05-29T12:50:20;25.90;1.00
6054;DHT22;3055;50.886;14.814;2023-05-29T12:52:57;26.20;1.00
6054;DHT22;3055;50.886;14.814;2023-05-29T12:55:24;26.60;1.00
6054;DHT22;3055;50.886;14.814;2023-05-29T12:57:53;26.80;1.00
6054;DHT22;3055;50.886;14.814;2023-05-29T13:00:21;26.90;1.00
6054;DHT22;3055;50.886;14.814;2023-05-29T13:02:49;26.60;1.00
6054;DHT22;3055;50.886;14.814;2023-05-29T13:05:16;26.10;1.00
6054;DHT22;3055;50.886;14.814;2023-05-29T13:07:46;25.50;1.00
6054;DHT22;3055;50.886;14.814;2023-05-29T13:10:13;25.10;1.00
6054;DHT22;3055;50.886;14.814;2023-05-29T13:12:41;25.20;1.00
6054;DHT22;3055;50.886;14.814;2023-05-29T13:15:11;25.60;1.00
6054;DHT22;3055;50.886;14.814;2023-05-29T13:17:38;26.30;1.00
6054;DHT22;3055;50.886;14.814;2023-05-29T13:20:08;26.70;1.00
6054;DHT22;3055;50.886;14.814;2023-05-29T13:22:37;26.90;1.00
6054;DHT22;3055;50.886;14.814;2023-05-29T13:25:04;27.10;1.00
6054;DHT22;3055;50.886;14.814;2023-05-29T13:27:33;27.10;1.00
6054;DHT22;3055;50.886;14.814;2023-05-29T13:30:01;26.90;1.00
6054;DHT22;3055;50.886;14.814;2023-05-29T13:32:29;26.50;1.00
6054;DHT22;3055;50.886;14.814;2023-05-29T13:34:56;26.00;1.00
6054;DHT22;3055;50.886;14.814;2023-05-29T13:37:24;25.40;1.00
6054;DHT22;3055;50.886;14.814;2023-05-29T13:39:52;25.10;1.00
6054;DHT22;3055;50.886;14.814;2023-05-29T13:42:19;25.50;1.00
6054;DHT22;3055;50.886;14.814;2023-05-29T13:44:47;26.00;1.00
6054;DHT22;3055;50.886;14.814;2023-05-29T13:47:14;26.40;1.00
6054;DHT22;3055;50.886;14.814;2023-05-29T13:49:43;26.80;1.00
6054;DHT22;3055;50.886;14.814;2023-05-29T13:52:10;27.10;1.00
6054;DHT22;3055;50.886;14.814;2023-05-29T13:54:38;27.30;1.00
6054;DHT22;3055;50.886;14.814;2023-05-29T13:57:06;27.70;1.00
6054;DHT22;3055;50.886;14.814;2023-05-29T13:59:33;27.70;1.00
6054;DHT22;3055;50.886;14.814;2023-05-29T14:02:01;28.10;1.00
6054;DHT22;3055;50.886;14.814;2023-05-29T14:04:29;28.70;1.00
6054;DHT22;3055;50.886;14.814;2023-05-29T14:06:58;28.50;1.00
6054;DHT22;3055;50.886;14.814;2023-05-29T14:09:25;29.10;1.00
6054;DHT22;3055;50.886;14.814;2023-05-29T14:11:56;29.40;1.00
6054;DHT22;3055;50.886;14.814;2023-05-29T14:14:25;29.80;1.00
6054;DHT22;3055;50.886;14.814;2023-05-29T14:16:52;29.60;99.90
6054;DHT22;3055;50.886;14.814;2023-05-29T14:19:20;29.50;99.90
6054;DHT22;3055;50.886;14.814;2023-05-29T14:21:47;29.00;99.90
6054;DHT22;3055;50.886;14.814;2023-05-29T14:24:15;29.00;99.90
6054;DHT22;3055;50.886;14.814;2023-05-29T14:26:43;29.10;99.90
6054;DHT22;3055;50.886;14.814;2023-05-29T14:29:12;29.30;99.90
6054;DHT22;3055;50.886;14.814;2023-05-29T14:31:40;29.70;99.90
6054;DHT22;3055;50.886;14.814;2023-05-29T14:34:07;30.10;99.90
6054;DHT22;3055;50.886;14.814;2023-05-29T14:36:34;30.30;99.90
6054;DHT22;3055;50.886;14.814;2023-05-29T14:39:02;29.90;99.90
6054;DHT22;3055;50.886;14.814;2023-05-29T14:41:31;29.80;99.90
6054;DHT22;3055;50.886;14.814;2023-05-29T14:43:59;30.00;99.90
6054;DHT22;3055;50.886;14.814;2023-05-29T14:46:26;29.70;99.90
6054;DHT22;3055;50.886;14.814;2023-05-29T14:48:57;29.80;99.90
6054;DHT22;3055;50.886;14.814;2023-05-29T14:51:24;29.60;99.90
6054;DHT22;3055;50.886;14.814;2023-05-29T14:53:51;29.50;99.90
6054;DHT22;3055;50.886;14.814;2023-05-29T14:56:18;29.60;99.90
6054;DHT22;3055;50.886;14.814;2023-05-29T14:58:47;30.00;99.90
6054;DHT22;3055;50.886;14.814;2023-05-29T15:01:15;30.60;99.90
6054;DHT22;3055;50.886;14.814;2023-05-29T15:03:42;31.60;99.90
6054;DHT22;3055;50.886;14.814;2023-05-29T15:06:09;31.60;99.90
6054;DHT22;3055;50.886;14.814;2023-05-29T15:08:37;31.00;99.90
6054;DHT22;3055;50.886;14.814;2023-05-29T15:11:06;30.40;99.90
6054;DHT22;3055;50.886;14.814;2023-05-29T15:13:33;30.00;99.90
6054;DHT22;3055;50.886;14.814;2023-05-29T15:16:01;29.60;99.90
6054;DHT22;3055;50.886;14.814;2023-05-29T15:18:29;29.70;99.90
6054;DHT22;3055;50.886;14.814;2023-05-29T15:20:56;29.80;99.90
6054;DHT22;3055;50.886;14.814;2023-05-29T15:23:24;29.90;99.90
6054;DHT22;3055;50.886;14.814;2023-05-29T15:25:51;29.80;99.90
6054;DHT22;3055;50.886;14.814;2023-05-29T15:28:18;29.80;99.90
6054;DHT22;3055;50.886;14.814;2023-05-29T15:30:45;29.90;99.90
6054;DHT22;3055;50.886;14.814;2023-05-29T15:33:14;30.20;99.90
6054;DHT22;3055;50.886;14.814;2023-05-29T15:35:41;30.90;99.90
6054;DHT22;3055;50.886;14.814;2023-05-29T15:38:08;30.70;99.90
6054;DHT22;3055;50.886;14.814;2023-05-29T15:40:35;30.90;99.90
6054;DHT22;3055;50.886;14.814;2023-05-29T15:43:02;30.90;99.90
6054;DHT22;3055;50.886;14.814;2023-05-29T15:45:29;30.80;99.90
6054;DHT22;3055;50.886;14.814;2023-05-29T15:47:56;30.60;99.90
6054;DHT22;3055;50.886;14.814;2023-05-29T15:50:25;30.20;99.90
6054;DHT22;3055;50.886;14.814;2023-05-29T15:52:52;30.10;99.90
6054;DHT22;3055;50.886;14.814;2023-05-29T15:55:19;29.70;99.90
6054;DHT22;3055;50.886;14.814;2023-05-29T15:57:46;29.40;99.90
6054;DHT22;3055;50.886;14.814;2023-05-29T16:00:15;29.00;99.90
6054;DHT22;3055;50.886;14.814;2023-05-29T16:02:42;28.90;99.90
6054;DHT22;3055;50.886;14.814;2023-05-29T16:05:09;29.20;99.90
6054;DHT22;3055;50.886;14.814;2023-05-29T16:07:38;29.40;99.90
6054;DHT22;3055;50.886;14.814;2023-05-29T16:10:07;29.50;99.90